Terminal Aerodrome Forecast
Issued by NWS

Home | Current Version | Previous Version | Graphics & Text | Print | Product List | Glossary On
Versions: 1 2 3 4 5 6 7 8 9 10 11 12 13 14 15 16
000
FTUS43 KICT 022332
TAFSLN
TAF
KSLN 022332Z 0300/0324 17016G23KT P6SM OVC150
     FM030600 19018G26KT 5SM BR OVC014
     FM031400 24020G28KT P6SM SCT020 BKN250
     FM031700 35019G27KT P6SM BKN030=

USA.gov is the U.S. government's official web portal to all federal, state and local government web resources and services.